Aérodrome :
LOGIN :

S'inscrire | Disclaimer

   EN    FR    IT 

 










Légende :    VFR   VFR Marginal   IFR   IFR Intensif   IFR Très Intensif
Visi : 
Plafond : 
>= 8 km
>= 3000ft
5 à 8 km
1000 à 3000 ft
1500m à 5 km
500 à 1000 ft
800 à 1500m
200 à 500 ft
< 800m
< 200 ft
Symboles :   Orages  Brouillard  Fortes neiges  Fortes précipitations  Vent > 20 kt
SIGMETs :   Divers  Orages  Givrage  Turbulence  Onde Orograph.  Cendres Volcan.






- Altitude de l'aérodrome : 20 ft
- Code IATA : LSI


EGPB - Sumburgh

DERNIER METAR :
  • 171620Z 24030G41KT 9999 VCSH FEW015CB SCT020 08/05 Q0995 TEMPO SHRA

METARs EXPIRÉS :
  • 171550Z 23033KT 9999 FEW020 08/04 Q0994 NOSIG
  • 171520Z 23035KT 9999 SCT020 08/05 Q0994
  • 171450Z 22034G47KT 8000 SCT020 08/04 Q0994 TEMPO SHRA
  • 171420Z 22031KT 9999 BKN020 08/04 Q0993
  • 171350Z 21031G47KT 9999 BKN020 08/03 Q0993 NOSIG

TAF TAF EGPB
Valide du 17 à 15h jusqu'au 18 à 00h UTC


171358Z 1715/1724 20025G35KT 9999 SCT016
BECMG 1715/1718 23028G38KT
PROB40
TEMPO 1715/1724 6000 SHRA BKN014
BECMG 1718/1721 26028G38KT
BECMG 1721/1724 29026G36KT



MET'MAP, la Météo Aéronautique d'un coup d'oeil ! - Copyright ORBIFLY Décembre 2007 - Disclaimer

ORBIFLY MET'MAP TEAM :

Programmation & Développement : Alexandra Zaïnal
Sur une idée originale de : Baudouin d'Aumeries
Assistance à la programmation : Marc-Olivier Méhu
Soutien technique & logistique : Manuel Goepfert

Contact : metmap@orbifly.com




SOURCES & CREDITS :

   NOAA